createdAt,value
2023-04-20T00:00:33.520Z,71.19
2023-04-20T00:03:04.717Z,70.08
2023-04-20T00:05:35.712Z,70.26
2023-04-20T00:08:07.977Z,69.82
2023-04-20T00:10:38.983Z,70.36
2023-04-20T00:13:09.687Z,71.21
2023-04-20T00:15:40.431Z,71.37
2023-04-20T00:18:11.142Z,71.41
2023-04-20T00:20:41.847Z,71.66
2023-04-20T00:23:12.574Z,71.37
2023-04-20T00:25:43.241Z,70.48
2023-04-20T00:28:13.927Z,70.35
2023-04-20T00:30:45.001Z,70.76
2023-04-20T00:33:15.977Z,69.77
2023-04-20T00:35:46.987Z,69.37
2023-04-20T00:38:17.646Z,69.43
2023-04-20T00:40:53.135Z,69.06
2023-04-20T00:43:24.270Z,69.75
2023-04-20T00:45:55.465Z,69.39
2023-04-20T00:48:26.302Z,70.28
2023-04-20T00:50:57.728Z,70.00
2023-04-20T00:53:28.568Z,70.04
2023-04-20T00:56:01.538Z,70.08
2023-04-20T00:58:32.456Z,70.39
2023-04-20T01:01:03.796Z,69.62
2023-04-20T01:03:34.806Z,69.61
2023-04-20T01:06:06.688Z,69.45
2023-04-20T01:08:37.592Z,68.96
2023-04-20T01:11:08.409Z,69.21
2023-04-20T01:13:39.700Z,68.68
2023-04-20T01:16:11.704Z,68.93
2023-04-20T01:18:47.310Z,68.67
2023-04-20T01:21:19.901Z,68.48
2023-04-20T01:23:51.284Z,68.06
2023-04-20T01:26:22.951Z,67.66
2023-04-20T01:28:53.277Z,68.16
2023-04-20T01:31:24.153Z,68.72
2023-04-20T01:33:55.301Z,67.65
2023-04-20T01:36:27.053Z,67.56
2023-04-20T01:38:59.000Z,68.56
2023-04-20T01:41:32.609Z,68.88
2023-04-20T01:44:03.312Z,69.82
2023-04-20T01:46:37.712Z,69.40
2023-04-20T01:49:09.227Z,68.53
2023-04-20T01:51:40.770Z,67.89
2023-04-20T01:54:11.489Z,69.28
2023-04-20T01:56:42.170Z,67.76
2023-04-20T01:59:12.865Z,68.36
2023-04-20T02:01:43.499Z,68.32
2023-04-20T02:04:14.199Z,68.13
2023-04-20T02:06:44.997Z,67.71
2023-04-20T02:09:16.186Z,67.02
2023-04-20T02:11:47.142Z,67.50
2023-04-20T02:14:17.849Z,68.67
2023-04-20T02:16:48.864Z,68.29
2023-04-20T02:19:19.782Z,68.49
2023-04-20T02:21:50.525Z,67.95
2023-04-20T02:24:21.660Z,67.52
2023-04-20T02:26:52.590Z,67.65
2023-04-20T02:29:23.450Z,67.96
2023-04-20T02:31:54.129Z,68.58
2023-04-20T02:34:26.127Z,68.17
2023-04-20T02:37:00.887Z,68.48
2023-04-20T02:39:31.592Z,68.46
2023-04-20T02:42:02.462Z,68.37
2023-04-20T02:44:33.506Z,68.21
2023-04-20T02:47:05.078Z,67.22
2023-04-20T02:49:36.183Z,67.79
2023-04-20T02:52:07.281Z,68.20
2023-04-20T02:54:38.195Z,68.23
2023-04-20T02:57:08.987Z,68.41
2023-04-20T02:59:39.797Z,68.01
2023-04-20T03:02:18.088Z,69.17
2023-04-20T03:04:49.061Z,68.04
2023-04-20T03:07:23.956Z,68.37
2023-04-20T03:09:55.759Z,68.59
2023-04-20T03:12:26.645Z,67.92
2023-04-20T03:14:57.414Z,68.63
2023-04-20T03:17:36.013Z,67.85
2023-04-20T03:20:09.125Z,67.94
2023-04-20T03:22:40.388Z,67.35
2023-04-20T03:25:12.073Z,67.34
2023-04-20T03:28:06.014Z,67.76
2023-04-20T03:30:37.567Z,67.72
2023-04-20T03:33:12.803Z,68.31
2023-04-20T03:35:43.923Z,68.38
2023-04-20T03:38:14.765Z,69.13
2023-04-20T03:40:46.106Z,68.74
2023-04-20T03:43:16.878Z,68.50
2023-04-20T03:45:47.669Z,68.36
2023-04-20T03:48:21.601Z,67.62
2023-04-20T03:50:52.698Z,68.81
2023-04-20T03:53:23.364Z,68.84
2023-04-20T03:55:54.134Z,68.11
2023-04-20T03:58:25.212Z,67.43
2023-04-20T04:01:16.114Z,68.09
2023-04-20T04:03:50.708Z,68.97
2023-04-20T04:06:21.802Z,69.25
2023-04-20T04:08:52.621Z,69.04
2023-04-20T04:11:25.486Z,69.15
2023-04-20T04:13:56.450Z,68.89
2023-04-20T04:16:28.005Z,68.60
2023-04-20T04:18:59.014Z,68.23
2023-04-20T04:21:30.834Z,69.35
2023-04-20T04:24:05.960Z,69.43
2023-04-20T04:26:45.706Z,69.12
2023-04-20T04:29:17.303Z,68.77
2023-04-20T04:31:48.364Z,68.28
2023-04-20T04:34:20.778Z,68.25
2023-04-20T04:36:54.744Z,68.40
2023-04-20T04:39:31.046Z,67.55
2023-04-20T04:42:09.522Z,68.15
2023-04-20T04:44:44.974Z,68.14
2023-04-20T04:47:20.058Z,68.38
2023-04-20T04:49:50.963Z,68.00
2023-04-20T04:52:21.837Z,69.15
2023-04-20T04:54:52.484Z,68.50
2023-04-20T04:57:23.157Z,68.29
2023-04-20T04:59:54.854Z,68.08
2023-04-20T05:02:25.691Z,68.72
2023-04-20T05:04:56.984Z,68.88
2023-04-20T05:07:27.694Z,69.02
2023-04-20T05:09:58.429Z,67.80
2023-04-20T05:12:29.182Z,68.42
2023-04-20T05:14:59.896Z,68.35
2023-04-20T05:17:30.639Z,67.87
2023-04-20T05:20:01.301Z,67.76
2023-04-20T05:22:32.055Z,68.31
2023-04-20T05:25:02.740Z,68.11
2023-04-20T05:27:33.775Z,67.80
2023-04-20T05:30:17.126Z,67.49
2023-04-20T05:32:52.504Z,68.03
2023-04-20T05:35:23.734Z,72.17
2023-04-20T05:37:54.311Z,72.33
2023-04-20T05:40:25.220Z,71.51
2023-04-20T05:42:55.999Z,71.65
2023-04-20T05:45:26.811Z,70.47
2023-04-20T05:47:58.602Z,70.80
2023-04-20T05:50:29.680Z,69.11
2023-04-20T05:53:00.414Z,69.14
2023-04-20T05:55:31.292Z,70.29
2023-04-20T05:58:02.007Z,69.54
2023-04-20T06:00:32.867Z,68.70
2023-04-20T06:03:04.414Z,71.40
2023-04-20T06:05:35.304Z,68.21
2023-04-20T06:08:06.421Z,68.02
2023-04-20T06:10:37.388Z,68.31
2023-04-20T06:13:08.031Z,68.41
2023-04-20T06:15:48.583Z,68.28
2023-04-20T06:18:19.422Z,68.05
2023-04-20T06:20:50.096Z,68.15
2023-04-20T06:23:20.886Z,68.42
2023-04-20T06:25:51.611Z,68.81
2023-04-20T06:28:22.285Z,68.83
2023-04-20T06:30:53.013Z,68.92
2023-04-20T06:33:23.919Z,69.16
2023-04-20T06:35:54.731Z,69.27
2023-04-20T06:38:26.376Z,69.22
2023-04-20T06:41:01.992Z,69.16
2023-04-20T06:43:33.368Z,68.99
2023-04-20T06:46:04.225Z,68.88
2023-04-20T06:48:35.482Z,68.92
2023-04-20T06:51:06.475Z,69.23
2023-04-20T06:53:37.215Z,69.59
2023-04-20T06:56:09.472Z,69.24
2023-04-20T06:58:40.236Z,69.38
2023-04-20T07:01:10.928Z,69.53
2023-04-20T07:03:42.002Z,69.58
2023-04-20T07:06:13.002Z,69.75
2023-04-20T07:08:43.869Z,69.71
2023-04-20T07:11:14.632Z,69.79
2023-04-20T07:13:45.561Z,69.75
2023-04-20T07:16:18.207Z,69.92
2023-04-20T07:18:49.141Z,69.80
2023-04-20T07:21:19.849Z,69.94
2023-04-20T07:23:50.766Z,70.18
2023-04-20T07:26:21.528Z,70.60
2023-04-20T07:28:52.224Z,70.55
2023-04-20T07:31:23.047Z,70.90
2023-04-20T07:33:53.642Z,70.75
2023-04-20T07:36:24.313Z,71.02
2023-04-20T07:38:54.985Z,70.78
2023-04-20T07:41:25.590Z,71.18
2023-04-20T07:43:56.372Z,70.96
2023-04-20T07:46:28.497Z,71.13
2023-04-20T07:48:59.132Z,71.59
2023-04-20T07:51:30.400Z,71.17
2023-04-20T07:54:01.241Z,70.94
2023-04-20T07:56:33.061Z,70.53
2023-04-20T07:59:04.021Z,70.56
2023-04-20T08:01:34.980Z,70.44
2023-04-20T08:04:06.766Z,70.33
2023-04-20T08:06:37.679Z,70.41
2023-04-20T08:09:08.390Z,70.59
2023-04-20T08:11:39.016Z,71.02
2023-04-20T08:14:09.718Z,70.90
2023-04-20T08:16:40.600Z,71.13
2023-04-20T08:19:11.335Z,70.83
2023-04-20T08:21:42.989Z,70.82
2023-04-20T08:24:14.466Z,70.94
2023-04-20T08:26:45.751Z,70.89
2023-04-20T08:29:16.584Z,70.80
2023-04-20T08:31:49.106Z,70.35
2023-04-20T08:34:20.697Z,70.41
2023-04-20T08:36:51.926Z,70.24
2023-04-20T08:39:24.367Z,70.15
2023-04-20T08:41:55.790Z,70.37
2023-04-20T08:44:26.795Z,70.54
2023-04-20T08:46:57.623Z,70.49
2023-04-20T08:49:31.307Z,70.29
2023-04-20T08:52:02.182Z,70.25
2023-04-20T08:54:33.854Z,70.39
2023-04-20T08:57:06.116Z,69.90
2023-04-20T08:59:39.461Z,70.73
2023-04-20T09:02:15.202Z,75.25
2023-04-20T09:04:49.000Z,76.39
2023-04-20T09:07:23.576Z,74.51
2023-04-20T09:09:58.473Z,70.41
2023-04-20T09:12:29.501Z,69.76
2023-04-20T09:15:00.222Z,69.22
2023-04-20T09:17:40.192Z,69.42
2023-04-20T09:20:12.969Z,69.32
2023-04-20T09:22:42.312Z,69.32
2023-04-20T09:25:18.995Z,69.16
2023-04-20T09:28:00.302Z,69.11
2023-04-20T09:30:40.326Z,68.88
2023-04-20T09:33:12.701Z,68.62
2023-04-20T09:35:45.495Z,69.17
2023-04-20T09:38:18.140Z,69.25
2023-04-20T09:40:47.268Z,69.66
2023-04-20T09:43:25.424Z,69.46
2023-04-20T09:45:56.895Z,69.44
2023-04-20T09:48:28.421Z,69.65
2023-04-20T09:51:03.094Z,70.00
2023-04-20T09:53:35.864Z,69.91
2023-04-20T09:56:06.468Z,70.03
2023-04-20T09:58:37.713Z,70.14
2023-04-20T10:01:12.494Z,70.39
2023-04-20T10:03:46.094Z,70.48
2023-04-20T10:06:25.229Z,70.73
2023-04-20T10:08:56.632Z,71.11
2023-04-20T10:11:44.452Z,71.08
2023-04-20T10:14:23.055Z,71.34
2023-04-20T10:17:03.596Z,71.61
2023-04-20T10:19:42.990Z,72.02
2023-04-20T10:22:26.193Z,72.31
2023-04-20T10:24:56.985Z,72.32
2023-04-20T10:27:28.159Z,72.09
2023-04-20T10:30:10.236Z,72.18
2023-04-20T10:32:41.379Z,72.31
2023-04-20T10:35:14.409Z,72.39
2023-04-20T10:37:51.784Z,72.23
2023-04-20T10:40:28.942Z,72.40
2023-04-20T10:42:59.646Z,72.38
2023-04-20T10:45:38.541Z,72.15
2023-04-20T10:48:14.503Z,72.24
2023-04-20T10:50:47.101Z,72.22
2023-04-20T10:53:24.871Z,71.99
2023-04-20T10:56:04.732Z,71.69
2023-04-20T10:58:35.480Z,71.93
2023-04-20T11:01:06.937Z,72.04
2023-04-20T11:03:37.784Z,72.08
2023-04-20T11:06:08.947Z,72.44
2023-04-20T11:08:41.811Z,72.49
2023-04-20T11:11:24.752Z,72.15
2023-04-20T11:14:05.860Z,72.25
2023-04-20T11:16:49.712Z,72.58
2023-04-20T11:19:27.578Z,72.53
2023-04-20T11:21:58.647Z,72.42
2023-04-20T11:24:31.132Z,72.51
2023-04-20T11:27:02.961Z,72.57
2023-04-20T11:29:35.499Z,72.75
2023-04-20T11:32:08.254Z,72.63
2023-04-20T11:34:38.162Z,72.73
2023-04-20T11:37:10.595Z,72.71
2023-04-20T11:39:41.746Z,72.76
2023-04-20T11:42:12.468Z,72.95
2023-04-20T11:44:43.112Z,73.20
2023-04-20T11:47:15.097Z,73.14
2023-04-20T11:49:45.878Z,73.00
2023-04-20T11:52:16.558Z,72.85
2023-04-20T11:54:47.283Z,73.16
2023-04-20T11:57:18.078Z,73.04
2023-04-20T11:59:49.259Z,73.21
2023-04-20T12:02:20.086Z,73.28
2023-04-20T12:04:51.447Z,72.99
2023-04-20T12:07:23.253Z,73.02
2023-04-20T12:09:53.933Z,73.23
2023-04-20T12:12:26.558Z,73.21
2023-04-20T12:14:57.352Z,73.36
2023-04-20T12:17:28.066Z,73.76
2023-04-20T12:19:59.148Z,73.65
2023-04-20T12:22:29.844Z,73.54
2023-04-20T12:25:00.461Z,73.35
2023-04-20T12:27:31.558Z,73.29
2023-04-20T12:30:02.373Z,73.46
2023-04-20T12:32:33.158Z,73.53
2023-04-20T12:35:04.198Z,73.39
2023-04-20T12:37:35.374Z,73.25
2023-04-20T12:40:08.510Z,73.48
2023-04-20T12:42:39.133Z,73.57
2023-04-20T12:45:11.619Z,73.53
2023-04-20T12:47:42.291Z,73.23
2023-04-20T12:50:14.126Z,73.60
2023-04-20T12:52:45.106Z,73.67
2023-04-20T12:55:15.799Z,73.82
2023-04-20T12:57:46.753Z,73.71
2023-04-20T13:00:19.211Z,73.74
2023-04-20T13:02:50.106Z,73.73
2023-04-20T13:05:21.426Z,73.35
2023-04-20T13:07:52.172Z,73.58
2023-04-20T13:10:22.910Z,73.79
2023-04-20T13:12:53.664Z,73.45
2023-04-20T13:15:35.597Z,73.59
2023-04-20T13:18:10.776Z,73.59
2023-04-20T13:20:41.566Z,73.52
2023-04-20T13:23:12.262Z,73.52
2023-04-20T13:25:42.876Z,73.79
2023-04-20T13:28:14.676Z,73.68
2023-04-20T13:30:45.957Z,73.58
2023-04-20T13:33:16.580Z,73.82
2023-04-20T13:35:47.848Z,73.81
2023-04-20T13:38:18.913Z,73.95
2023-04-20T13:40:50.712Z,73.90
2023-04-20T13:43:21.811Z,73.79
2023-04-20T13:45:52.858Z,73.87
2023-04-20T13:48:23.855Z,74.05
2023-04-20T13:50:55.248Z,73.69
2023-04-20T13:53:26.041Z,73.95
2023-04-20T13:55:58.894Z,73.94
2023-04-20T13:58:29.937Z,74.13
2023-04-20T14:01:00.699Z,73.99
2023-04-20T14:03:31.714Z,73.86
2023-04-20T14:06:03.541Z,73.55
2023-04-20T14:08:34.224Z,73.71
2023-04-20T14:11:04.951Z,73.50
2023-04-20T14:13:35.638Z,73.58
2023-04-20T14:16:11.053Z,73.40
2023-04-20T14:18:41.771Z,73.11
2023-04-20T14:21:12.717Z,73.33
2023-04-20T14:23:43.439Z,72.85
2023-04-20T14:26:14.257Z,72.68
2023-04-20T14:28:45.981Z,72.39
2023-04-20T14:31:16.734Z,72.35
2023-04-20T14:33:47.575Z,72.07
2023-04-20T14:36:18.654Z,72.72
2023-04-20T14:38:49.360Z,72.20
2023-04-20T14:41:20.079Z,71.68
2023-04-20T14:43:52.413Z,71.62
2023-04-20T14:46:23.470Z,71.62
2023-04-20T14:48:54.239Z,71.55
2023-04-20T14:51:28.225Z,71.50
2023-04-20T14:53:59.069Z,71.43
2023-04-20T14:56:30.205Z,70.98
2023-04-20T14:59:01.451Z,71.09
2023-04-20T15:01:32.361Z,71.05
2023-04-20T15:04:04.658Z,71.14
2023-04-20T15:06:35.709Z,70.77
2023-04-20T15:09:06.641Z,70.40
2023-04-20T15:11:37.328Z,70.36
2023-04-20T15:14:08.071Z,70.48
2023-04-20T15:16:38.724Z,70.09
2023-04-20T15:19:09.569Z,69.66
2023-04-20T15:21:41.044Z,69.49
2023-04-20T15:24:12.811Z,69.51
2023-04-20T15:26:43.811Z,69.50
2023-04-20T15:29:14.675Z,69.30
2023-04-20T15:31:46.818Z,69.04
2023-04-20T15:34:17.939Z,69.23
2023-04-20T15:36:49.090Z,69.23
2023-04-20T15:39:19.781Z,69.06
2023-04-20T15:41:50.726Z,69.02
2023-04-20T15:44:21.447Z,68.88
2023-04-20T15:46:52.188Z,68.93
2023-04-20T15:49:22.900Z,68.90
2023-04-20T15:51:53.659Z,68.93
2023-04-20T15:54:24.665Z,68.61
2023-04-20T15:56:55.670Z,68.24
2023-04-20T15:59:26.273Z,68.10
2023-04-20T16:01:57.505Z,67.85
2023-04-20T16:04:28.572Z,67.76
2023-04-20T16:06:59.675Z,67.42
2023-04-20T16:09:30.468Z,66.96
2023-04-20T16:12:02.274Z,66.61
2023-04-20T16:14:33.300Z,66.74
2023-04-20T16:17:05.004Z,66.74
2023-04-20T16:19:35.742Z,66.67
2023-04-20T16:22:06.875Z,66.33
2023-04-20T16:24:37.499Z,66.35
2023-04-20T16:27:08.608Z,65.93
2023-04-20T16:29:39.453Z,66.08
2023-04-20T16:32:10.251Z,65.75
2023-04-20T16:34:41.078Z,66.02
2023-04-20T16:37:11.912Z,66.15
2023-04-20T16:39:43.115Z,65.99
2023-04-20T16:42:16.138Z,66.03
2023-04-20T16:44:46.854Z,66.18
2023-04-20T16:47:17.546Z,66.31
2023-04-20T16:49:49.007Z,66.26
2023-04-20T16:52:19.981Z,66.20
2023-04-20T16:54:50.754Z,65.87
2023-04-20T16:57:21.751Z,65.79
2023-04-20T16:59:57.999Z,65.92
2023-04-20T17:02:32.860Z,65.89
2023-04-20T17:05:03.900Z,65.73
2023-04-20T17:07:36.270Z,65.80
2023-04-20T17:10:08.239Z,66.16
2023-04-20T17:12:41.118Z,66.00
2023-04-20T17:15:15.617Z,66.13
2023-04-20T17:17:46.449Z,66.03
2023-04-20T17:20:17.452Z,66.12
2023-04-20T17:22:48.170Z,66.25
2023-04-20T17:25:19.392Z,66.26
2023-04-20T17:27:50.199Z,66.32
2023-04-20T17:30:21.265Z,66.52
2023-04-20T17:32:54.119Z,66.47
2023-04-20T17:35:25.815Z,66.49
2023-04-20T17:37:56.716Z,66.45
2023-04-20T17:40:27.353Z,66.42
2023-04-20T17:42:58.544Z,66.58
2023-04-20T17:45:29.170Z,66.71
2023-04-20T17:47:59.847Z,66.80
2023-04-20T17:50:30.610Z,66.84
2023-04-20T17:53:06.400Z,66.95
2023-04-20T17:55:37.396Z,66.90
2023-04-20T17:58:08.047Z,67.11
2023-04-20T18:00:38.811Z,67.16
2023-04-20T18:03:09.707Z,67.37
2023-04-20T18:05:41.217Z,67.39
2023-04-20T18:08:13.342Z,67.41
2023-04-20T18:10:44.039Z,67.62
2023-04-20T18:13:14.730Z,67.78
2023-04-20T18:15:45.912Z,67.92
2023-04-20T18:18:18.514Z,67.99
2023-04-20T18:20:47.690Z,68.13
2023-04-20T18:23:18.427Z,68.25
2023-04-20T18:25:49.272Z,68.33
2023-04-20T18:28:20.249Z,68.34
2023-04-20T18:30:50.953Z,68.37
2023-04-20T18:33:21.837Z,68.43
2023-04-20T18:35:52.709Z,68.49
2023-04-20T18:38:23.338Z,68.44
2023-04-20T18:40:54.082Z,68.47
2023-04-20T18:43:24.889Z,68.58
2023-04-20T18:45:55.576Z,68.48
2023-04-20T18:48:26.304Z,68.48
2023-04-20T18:50:57.133Z,68.53
2023-04-20T18:53:27.793Z,68.44
2023-04-20T18:56:02.136Z,68.68
2023-04-20T18:58:33.636Z,68.55
2023-04-20T19:01:04.451Z,68.68
2023-04-20T19:03:35.867Z,68.81
2023-04-20T19:06:06.885Z,68.73
2023-04-20T19:08:38.144Z,68.72
2023-04-20T19:11:08.829Z,68.89
2023-04-20T19:13:44.281Z,68.83
2023-04-20T19:16:16.450Z,69.02
2023-04-20T19:18:49.179Z,69.09
2023-04-20T19:21:21.681Z,69.11
2023-04-20T19:23:53.008Z,69.28
2023-04-20T19:26:24.211Z,69.27
2023-04-20T19:28:56.432Z,69.15
2023-04-20T19:31:32.273Z,69.51
2023-04-20T19:34:03.629Z,69.42
2023-04-20T19:36:34.329Z,69.50
2023-04-20T19:39:07.068Z,69.48
2023-04-20T19:41:38.130Z,69.44
2023-04-20T19:44:10.526Z,69.62
2023-04-20T19:46:43.464Z,69.61
2023-04-20T19:49:14.124Z,69.75
2023-04-20T19:51:44.786Z,70.11
2023-04-20T19:54:17.526Z,70.24
2023-04-20T19:56:47.032Z,70.18
2023-04-20T19:59:18.409Z,70.37
2023-04-20T20:01:50.791Z,70.40
2023-04-20T20:04:21.927Z,70.39
2023-04-20T20:06:52.954Z,70.51
2023-04-20T20:09:24.376Z,70.71
2023-04-20T20:11:55.435Z,70.80
2023-04-20T20:14:26.086Z,70.95
2023-04-20T20:16:57.354Z,70.84
2023-04-20T20:19:28.199Z,70.92
2023-04-20T20:21:58.875Z,70.84
2023-04-20T20:24:30.099Z,71.14
2023-04-20T20:27:00.856Z,71.22
2023-04-20T20:29:31.880Z,71.33
2023-04-20T20:32:02.870Z,71.29
2023-04-20T20:34:33.608Z,71.64
2023-04-20T20:37:04.531Z,71.62
2023-04-20T20:39:35.561Z,71.56
2023-04-20T20:42:08.971Z,71.86
2023-04-20T20:44:40.415Z,71.96
2023-04-20T20:47:11.478Z,72.14
2023-04-20T20:49:42.177Z,72.49
2023-04-20T20:52:12.935Z,72.50
2023-04-20T20:54:44.222Z,72.68
2023-04-20T20:57:14.948Z,72.77
2023-04-20T20:59:45.863Z,73.04
2023-04-20T21:02:17.254Z,73.20
2023-04-20T21:04:48.195Z,73.40
2023-04-20T21:07:18.917Z,73.68
2023-04-20T21:09:50.306Z,73.97
2023-04-20T21:12:23.209Z,74.01
2023-04-20T21:14:53.904Z,74.22
2023-04-20T21:17:24.660Z,74.21
2023-04-20T21:19:58.416Z,74.43
2023-04-20T21:22:30.918Z,74.38
2023-04-20T21:25:01.783Z,74.55
2023-04-20T21:27:32.645Z,74.70
2023-04-20T21:30:03.492Z,74.79
2023-04-20T21:32:34.301Z,74.87
2023-04-20T21:35:06.139Z,74.80
2023-04-20T21:37:36.817Z,74.99
2023-04-20T21:40:09.955Z,74.92
2023-04-20T21:42:40.659Z,74.97
2023-04-20T21:45:13.172Z,75.17
2023-04-20T21:47:44.162Z,75.18
2023-04-20T21:50:15.215Z,75.05
2023-04-20T21:52:45.886Z,75.16
2023-04-20T21:55:16.708Z,75.28
2023-04-20T21:57:47.360Z,75.37
2023-04-20T22:00:18.904Z,75.30
2023-04-20T22:02:50.517Z,75.62
2023-04-20T22:05:21.973Z,75.42
2023-04-20T22:07:53.216Z,75.23
2023-04-20T22:10:24.301Z,75.48
2023-04-20T22:12:55.050Z,75.37
2023-04-20T22:15:26.252Z,75.65
2023-04-20T22:18:00.659Z,75.66
2023-04-20T22:20:31.552Z,75.88
2023-04-20T22:23:02.800Z,75.86
2023-04-20T22:25:33.658Z,75.81
2023-04-20T22:28:04.732Z,76.03
2023-04-20T22:30:35.844Z,75.88
2023-04-20T22:33:06.760Z,76.19
2023-04-20T22:35:37.480Z,76.18
2023-04-20T22:38:08.224Z,76.42
2023-04-20T22:40:39.022Z,77.63
2023-04-20T22:43:09.798Z,77.45
2023-04-20T22:45:40.757Z,77.60
2023-04-20T22:48:11.710Z,77.68
2023-04-20T22:50:42.422Z,77.38
2023-04-20T22:53:13.802Z,77.81
2023-04-20T22:55:44.703Z,77.55
2023-04-20T22:58:15.525Z,77.74
2023-04-20T23:00:46.902Z,77.89
2023-04-20T23:03:17.792Z,77.62
2023-04-20T23:05:48.648Z,77.80
2023-04-20T23:08:20.750Z,77.76
2023-04-20T23:10:53.701Z,77.79
2023-04-20T23:13:26.557Z,77.00
2023-04-20T23:15:57.501Z,76.90
2023-04-20T23:18:28.443Z,76.08
2023-04-20T23:20:59.177Z,76.18
2023-04-20T23:23:30.056Z,76.14
2023-04-20T23:26:00.744Z,75.52
2023-04-20T23:28:31.738Z,75.75
2023-04-20T23:31:02.411Z,74.86
2023-04-20T23:33:33.273Z,75.36
2023-04-20T23:36:07.817Z,75.06
2023-04-20T23:38:38.612Z,75.78
2023-04-20T23:41:12.597Z,76.37
2023-04-20T23:43:43.625Z,76.32
2023-04-20T23:46:15.315Z,76.28
2023-04-20T23:48:46.119Z,75.37
2023-04-20T23:51:16.700Z,74.91
2023-04-20T23:53:47.347Z,75.10
2023-04-20T23:56:18.128Z,75.01
2023-04-20T23:58:48.971Z,75.27
